Time;durP1;ratioP1;P1;durP2;ratioP2;P2;SDS_P1;SDS_P2;PMS_P1;PMS_P2;Temp;Humidity;BMP_temperature;BMP_pressure;BME280_temperature;BME280_humidity;BME280_pressure;Samples;Min_cycle;Max_cycle;Signal;HPM_P1;HPM_P2
2023/12/05 00:03:39;;;;;;;7.17;6.30;;;6.20;98.00;;;;;;10454664;28;20595;-62
2023/12/05 00:08:43;;;;;;;6.77;6.07;;;6.20;98.10;;;;;;10456854;28;20198;-63
2023/12/05 00:13:50;;;;;;;7.33;6.10;;;6.20;98.00;;;;;;10453270;28;20267;-62
2023/12/05 00:18:55;;;;;;;7.30;5.83;;;6.20;98.00;;;;;;10450152;28;20292;-63
2023/12/05 00:23:59;;;;;;;7.63;6.83;;;6.20;98.10;;;;;;10452316;28;20218;-63
2023/12/05 00:29:02;;;;;;;6.23;5.63;;;6.20;98.00;;;;;;10444476;28;20193;-62
2023/12/05 00:34:07;;;;;;;6.33;5.73;;;6.20;98.20;;;;;;10443383;28;20213;-61
2023/12/05 00:39:11;;;;;;;6.97;6.27;;;6.20;98.40;;;;;;10450097;28;20222;-62
2023/12/05 00:44:14;;;;;;;6.60;5.87;;;6.20;98.20;;;;;;10450235;28;20221;-63
2023/12/05 00:49:19;;;;;;;6.73;5.90;;;6.30;98.20;;;;;;10446239;28;20195;-64
2023/12/05 00:54:23;;;;;;;6.13;5.57;;;6.30;98.60;;;;;;10439383;28;20249;-63
2023/12/05 00:59:27;;;;;;;12.10;8.23;;;6.30;98.30;;;;;;10449451;28;20272;-62
2023/12/05 01:04:32;;;;;;;5.87;5.37;;;6.30;99.20;;;;;;10453029;28;20856;-62
2023/12/05 01:09:36;;;;;;;6.13;5.53;;;6.30;99.00;;;;;;10445326;28;20573;-62
2023/12/05 01:14:40;;;;;;;8.13;6.20;;;6.30;99.00;;;;;;10439288;28;20276;-62
2023/12/05 01:19:45;;;;;;;6.17;5.57;;;6.30;99.50;;;;;;10449223;28;20214;-63
2023/12/05 01:24:54;;;;;;;7.17;6.47;;;6.30;99.40;;;;;;10445427;28;20638;-63
2023/12/05 01:29:58;;;;;;;6.40;5.80;;;6.40;99.80;;;;;;10446356;28;20196;-63
2023/12/05 01:35:03;;;;;;;6.30;5.70;;;6.40;99.60;;;;;;10450627;28;20272;-63
2023/12/05 01:40:09;;;;;;;6.67;5.97;;;6.40;99.70;;;;;;10442378;28;20214;-63
2023/12/05 01:45:13;;;;;;;6.40;5.80;;;6.40;99.90;;;;;;10447176;28;20241;-62
2023/12/05 01:50:28;;;;;;;6.57;5.97;;;6.40;99.50;;;;;;10441201;28;20205;-62
2023/12/05 01:55:32;;;;;;;6.00;5.50;;;6.40;99.80;;;;;;10444744;28;20227;-61
2023/12/05 02:00:38;;;;;;;6.63;5.93;;;6.40;99.60;;;;;;10440376;28;20284;-61
2023/12/05 02:05:44;;;;;;;6.70;6.10;;;6.50;99.90;;;;;;10441341;28;20211;-62
2023/12/05 02:10:49;;;;;;;6.10;5.50;;;6.50;99.70;;;;;;10439134;28;20221;-62
2023/12/05 02:15:59;;;;;;;6.57;5.97;;;6.40;99.90;;;;;;10454690;28;20593;-62
2023/12/05 02:21:13;;;;;;;6.27;5.67;;;6.50;99.50;;;;;;10442017;28;20283;-63
2023/12/05 02:26:28;;;;;;;6.83;6.23;;;6.50;99.70;;;;;;10445666;28;20253;-63
2023/12/05 02:31:34;;;;;;;6.00;5.40;;;6.50;99.90;;;;;;10437982;28;20271;-63
2023/12/05 02:36:46;;;;;;;5.83;5.33;;;6.50;99.90;;;;;;10447670;28;20286;-62
2023/12/05 02:41:55;;;;;;;6.23;5.63;;;6.50;99.90;;;;;;10436225;28;20221;-62
2023/12/05 02:47:02;;;;;;;5.80;5.20;;;6.60;99.90;;;;;;10442207;28;20202;-62
2023/12/05 02:52:06;;;;;;;5.70;5.20;;;6.50;99.90;;;;;;10447786;28;20619;-63
2023/12/05 02:57:10;;;;;;;6.30;5.47;;;6.60;99.90;;;;;;10451997;28;20218;-61
2023/12/05 03:02:14;;;;;;;5.40;4.90;;;6.50;99.80;;;;;;10446593;28;20237;-62
2023/12/05 03:07:18;;;;;;;6.40;5.80;;;6.50;99.90;;;;;;10439829;28;20207;-63
2023/12/05 03:12:22;;;;;;;5.73;5.17;;;6.60;99.70;;;;;;10452524;28;20233;-63
2023/12/05 03:17:27;;;;;;;5.40;4.90;;;6.60;99.90;;;;;;10446428;28;20286;-63
2023/12/05 03:22:31;;;;;;;5.70;5.17;;;6.60;99.60;;;;;;10447875;28;20229;-62
2023/12/05 03:27:34;;;;;;;6.03;5.40;;;6.60;99.90;;;;;;10451271;28;20202;-63
2023/12/05 03:32:39;;;;;;;5.23;4.73;;;6.60;99.70;;;;;;10461026;28;20713;-63
2023/12/05 03:37:43;;;;;;;5.70;5.20;;;6.60;99.50;;;;;;10459389;28;20706;-63
2023/12/05 03:42:46;;;;;;;5.53;5.03;;;6.60;99.60;;;;;;10453328;28;20284;-62
2023/12/05 03:47:51;;;;;;;5.97;5.27;;;6.60;99.60;;;;;;10421969;28;20223;-62
2023/12/05 03:52:55;;;;;;;6.30;5.00;;;6.60;99.70;;;;;;10447710;28;20219;-62
2023/12/05 03:57:59;;;;;;;5.70;5.10;;;6.60;99.90;;;;;;10458232;28;20213;-61
2023/12/05 04:03:04;;;;;;;6.10;5.50;;;6.60;99.90;;;;;;10446426;28;20234;-60
2023/12/05 04:08:08;;;;;;;4.93;4.47;;;6.60;99.90;;;;;;10465732;28;20256;-61
2023/12/05 04:13:11;;;;;;;5.00;4.53;;;6.60;99.90;;;;;;10434886;28;20249;-61
2023/12/05 04:18:16;;;;;;;5.13;4.63;;;6.60;99.90;;;;;;10453408;28;20222;-61
2023/12/05 04:23:20;;;;;;;5.10;4.70;;;6.60;99.90;;;;;;10444487;28;20229;-62
2023/12/05 04:28:24;;;;;;;6.03;5.00;;;6.60;99.90;;;;;;10447769;28;20205;-62
2023/12/05 04:33:30;;;;;;;5.70;5.10;;;6.60;99.90;;;;;;10408132;28;20222;-60
2023/12/05 04:38:42;;;;;;;5.77;4.83;;;6.60;99.90;;;;;;10433463;28;20267;-61
2023/12/05 04:43:46;;;;;;;6.27;5.67;;;6.70;99.90;;;;;;10429800;28;20226;-62
2023/12/05 04:48:51;;;;;;;6.53;5.83;;;6.70;99.90;;;;;;10457104;28;20202;-62
2023/12/05 04:53:55;;;;;;;6.37;5.77;;;6.70;99.90;;;;;;10430305;28;20281;-61
2023/12/05 04:58:58;;;;;;;6.57;5.63;;;6.70;99.90;;;;;;10445586;28;20219;-62
2023/12/05 05:04:04;;;;;;;6.57;5.97;;;6.70;99.90;;;;;;10463457;28;20275;-59
2023/12/05 05:09:08;;;;;;;7.33;6.43;;;6.70;99.90;;;;;;10423487;28;20199;-58
2023/12/05 05:14:11;;;;;;;7.00;5.63;;;6.70;99.90;;;;;;10462961;28;20277;-60
2023/12/05 05:19:16;;;;;;;6.63;5.97;;;6.80;99.90;;;;;;10456471;28;20226;-61
2023/12/05 05:24:20;;;;;;;7.73;6.93;;;6.80;99.90;;;;;;10423209;28;20648;-60
2023/12/05 05:29:23;;;;;;;6.80;6.20;;;6.80;99.90;;;;;;10454383;28;20244;-60
2023/12/05 05:34:28;;;;;;;7.00;6.30;;;6.80;99.90;;;;;;10454935;28;20271;-62
2023/12/05 05:39:32;;;;;;;5.90;5.30;;;6.80;99.90;;;;;;10454114;28;20217;-62
2023/12/05 05:44:36;;;;;;;5.73;5.13;;;6.80;99.90;;;;;;10454710;28;20215;-60
2023/12/05 05:49:41;;;;;;;5.00;4.50;;;6.80;99.90;;;;;;10454299;28;20606;-60
2023/12/05 05:54:44;;;;;;;5.17;4.67;;;6.90;99.90;;;;;;10449500;28;20223;-61
2023/12/05 05:59:48;;;;;;;6.40;4.93;;;6.90;99.90;;;;;;10449267;28;20585;-60
2023/12/05 06:04:53;;;;;;;4.73;4.33;;;6.90;99.90;;;;;;10439982;28;20230;-60
2023/12/05 06:09:57;;;;;;;5.73;5.23;;;7.00;99.90;;;;;;10439493;28;20199;-60
2023/12/05 06:15:00;;;;;;;5.07;4.57;;;7.00;99.90;;;;;;10448652;28;20222;-63
2023/12/05 06:20:08;;;;;;;5.33;4.90;;;7.00;99.90;;;;;;10441454;28;20568;-64
2023/12/05 06:25:12;;;;;;;5.60;5.10;;;7.00;99.90;;;;;;10437410;28;20219;-64
2023/12/05 06:30:16;;;;;;;7.70;6.90;;;7.10;99.90;;;;;;10444106;28;20244;-64
2023/12/05 06:35:30;;;;;;;6.50;5.90;;;7.00;99.90;;;;;;10438802;28;20562;-64
2023/12/05 06:40:34;;;;;;;8.23;7.40;;;7.10;99.90;;;;;;10447191;28;20223;-64
2023/12/05 06:45:37;;;;;;;8.27;6.57;;;7.10;99.90;;;;;;10446541;28;20200;-63
2023/12/05 06:50:45;;;;;;;10.90;9.10;;;7.10;99.90;;;;;;10448849;28;20650;-64
2023/12/05 06:55:49;;;;;;;7.90;4.97;;;7.20;99.90;;;;;;10407143;28;20553;-64
2023/12/05 07:00:52;;;;;;;6.27;5.40;;;7.20;99.90;;;;;;10439517;28;20248;-64
2023/12/05 07:05:57;;;;;;;6.77;5.00;;;7.20;99.90;;;;;;10398993;28;20224;-64
2023/12/05 07:11:02;;;;;;;5.20;4.60;;;7.20;99.90;;;;;;10435472;28;20240;-64
2023/12/05 07:16:06;;;;;;;5.23;4.73;;;7.20;99.90;;;;;;10444145;28;20875;-63
2023/12/05 07:21:11;;;;;;;8.83;6.63;;;7.30;99.90;;;;;;10441358;28;20296;-64
2023/12/05 07:26:15;;;;;;;5.63;5.07;;;7.30;99.90;;;;;;10443030;28;20649;-63
2023/12/05 07:31:20;;;;;;;6.13;5.50;;;7.30;99.90;;;;;;10447390;28;20908;-64
2023/12/05 07:36:26;;;;;;;6.57;5.87;;;7.30;99.90;;;;;;10446014;28;20207;-64
2023/12/05 07:41:29;;;;;;;6.83;6.13;;;7.30;99.90;;;;;;10440146;28;20282;-64
2023/12/05 07:46:33;;;;;;;7.90;6.80;;;7.30;99.90;;;;;;10445341;28;20197;-64
2023/12/05 07:51:38;;;;;;;7.33;6.23;;;7.30;99.90;;;;;;10452364;28;20219;-64
2023/12/05 07:56:42;;;;;;;8.40;7.00;;;7.40;99.90;;;;;;10448163;28;20262;-64
2023/12/05 08:01:46;;;;;;;7.10;6.40;;;7.40;99.90;;;;;;10446775;28;20231;-64
2023/12/05 08:06:51;;;;;;;8.70;7.23;;;7.40;99.90;;;;;;10443429;28;20284;-65
2023/12/05 08:11:56;;;;;;;10.30;8.40;;;7.40;99.90;;;;;;10448392;28;20298;-65
2023/12/05 08:17:00;;;;;;;10.77;8.83;;;7.40;99.90;;;;;;10446648;28;20226;-64
2023/12/05 08:22:05;;;;;;;11.73;8.30;;;7.50;99.90;;;;;;10452239;28;20227;-64
2023/12/05 08:27:08;;;;;;;8.03;6.97;;;7.50;99.90;;;;;;10448772;28;20207;-65
2023/12/05 08:32:12;;;;;;;8.77;7.40;;;7.50;99.90;;;;;;10456500;28;20600;-64
2023/12/05 08:37:17;;;;;;;9.30;8.40;;;7.60;99.90;;;;;;10452791;28;21147;-65
2023/12/05 08:42:21;;;;;;;6.03;5.43;;;7.70;99.90;;;;;;10455325;28;20276;-65
2023/12/05 08:47:24;;;;;;;5.30;4.80;;;7.80;99.90;;;;;;10451651;28;20632;-65
2023/12/05 08:52:29;;;;;;;7.73;5.00;;;7.80;99.90;;;;;;10450074;28;20219;-64
2023/12/05 08:57:33;;;;;;;4.00;3.60;;;7.80;99.90;;;;;;10449765;28;20229;-65
2023/12/05 09:02:37;;;;;;;9.07;6.27;;;7.90;99.90;;;;;;10448463;28;20683;-66
2023/12/05 09:07:42;;;;;;;6.17;4.80;;;7.90;99.90;;;;;;10446804;28;20228;-65
2023/12/05 09:12:47;;;;;;;6.70;4.83;;;8.00;99.90;;;;;;10447851;28;20282;-67
2023/12/05 09:17:51;;;;;;;3.83;3.23;;;8.00;99.90;;;;;;10453421;28;20574;-64
2023/12/05 09:22:56;;;;;;;8.03;4.37;;;8.10;99.90;;;;;;10450316;28;20586;-65
2023/12/05 09:28:04;;;;;;;5.37;3.33;;;8.10;99.90;;;;;;10442695;28;20670;-65
2023/12/05 09:33:08;;;;;;;4.07;3.17;;;8.10;99.90;;;;;;10450635;28;20223;-66
2023/12/05 09:38:13;;;;;;;7.17;4.20;;;8.10;99.90;;;;;;10451646;28;20269;-65
2023/12/05 09:43:20;;;;;;;4.13;2.90;;;8.20;99.90;;;;;;10450121;28;20230;-65
2023/12/05 09:48:27;;;;;;;2.90;2.60;;;8.20;99.90;;;;;;10449932;28;20226;-65
2023/12/05 09:53:33;;;;;;;4.53;2.50;;;8.30;99.90;;;;;;10449106;28;20266;-64
2023/12/05 09:58:37;;;;;;;3.10;1.83;;;8.30;99.90;;;;;;10451865;28;20219;-63
2023/12/05 10:03:42;;;;;;;4.00;2.73;;;8.40;99.90;;;;;;10448049;28;20764;-63
2023/12/05 10:08:47;;;;;;;4.07;2.77;;;8.40;99.90;;;;;;10449680;28;20570;-63
2023/12/05 10:13:51;;;;;;;5.30;2.87;;;8.50;99.90;;;;;;10450904;28;20227;-64
2023/12/05 10:18:55;;;;;;;4.10;2.63;;;8.50;99.90;;;;;;10443348;28;20224;-65
2023/12/05 10:24:01;;;;;;;3.20;1.87;;;8.50;99.90;;;;;;10446057;28;20567;-64
2023/12/05 10:29:05;;;;;;;3.67;1.90;;;8.60;99.90;;;;;;10445930;28;20714;-64
2023/12/05 10:34:09;;;;;;;1.43;1.30;;;8.60;99.90;;;;;;10452110;28;20223;-64
2023/12/05 10:39:14;;;;;;;3.10;1.67;;;8.60;99.90;;;;;;10446639;28;20244;-63
2023/12/05 10:44:18;;;;;;;2.47;1.87;;;8.70;99.90;;;;;;10446714;28;20219;-64
2023/12/05 10:49:22;;;;;;;5.33;2.63;;;8.70;99.90;;;;;;10448099;28;20203;-66
2023/12/05 10:54:27;;;;;;;1.77;1.50;;;8.70;99.90;;;;;;10449265;28;20512;-63
2023/12/05 10:59:33;;;;;;;4.63;1.93;;;8.80;99.90;;;;;;10447211;28;20207;-65
2023/12/05 11:04:37;;;;;;;1.53;1.10;;;8.80;99.90;;;;;;10449107;28;20250;-63
2023/12/05 11:09:44;;;;;;;2.60;1.30;;;8.90;99.90;;;;;;10449792;28;20249;-64
2023/12/05 11:14:50;;;;;;;1.27;1.00;;;8.90;99.90;;;;;;10449513;28;20259;-65
2023/12/05 11:20:11;;;;;;;2.40;1.60;;;8.90;99.90;;;;;;10449658;28;20257;-64
2023/12/05 11:25:36;;;;;;;3.03;1.83;;;8.90;99.90;;;;;;10446803;28;20203;-65
2023/12/05 11:31:01;;;;;;;1.83;1.37;;;8.90;99.90;;;;;;10447997;28;20212;-65
2023/12/05 11:36:14;;;;;;;2.00;1.60;;;8.90;99.90;;;;;;10445910;28;20199;-64
2023/12/05 11:41:20;;;;;;;8.13;6.13;;;8.80;99.90;;;;;;10441065;28;20242;-64
2023/12/05 11:46:24;;;;;;;9.13;6.47;;;8.80;99.90;;;;;;10450270;28;20211;-64
2023/12/05 11:51:31;;;;;;;7.10;4.93;;;8.80;99.90;;;;;;10447673;28;20216;-64
2023/12/05 11:56:36;;;;;;;3.10;2.13;;;8.80;99.90;;;;;;10449873;28;20199;-64
2023/12/05 12:01:42;;;;;;;1.73;1.40;;;8.80;99.90;;;;;;10456527;28;20219;-66
2023/12/05 12:06:50;;;;;;;1.83;1.07;;;8.80;99.90;;;;;;10459054;28;20212;-63
2023/12/05 12:11:57;;;;;;;1.20;1.00;;;8.80;99.90;;;;;;10453797;28;20262;-64
2023/12/05 12:17:02;;;;;;;5.80;1.97;;;8.80;99.90;;;;;;10461237;28;20207;-63
2023/12/05 12:22:08;;;;;;;2.67;1.53;;;8.80;99.90;;;;;;10461415;28;20222;-63
2023/12/05 12:27:13;;;;;;;1.00;0.90;;;8.80;99.90;;;;;;10460396;28;20203;-63
2023/12/05 12:32:18;;;;;;;1.50;1.00;;;8.90;99.90;;;;;;10456016;28;20215;-63
2023/12/05 12:37:21;;;;;;;1.57;0.90;;;8.80;99.90;;;;;;10454004;28;20204;-63
2023/12/05 12:42:27;;;;;;;1.43;1.03;;;8.90;99.90;;;;;;10452496;28;20300;-62
2023/12/05 12:47:30;;;;;;;1.83;1.20;;;8.90;99.90;;;;;;10450021;28;20195;-64
2023/12/05 12:52:34;;;;;;;1.03;0.90;;;8.90;99.90;;;;;;10455976;28;20300;-64
2023/12/05 12:57:41;;;;;;;1.23;0.90;;;8.90;99.90;;;;;;10455336;28;20261;-63
2023/12/05 13:02:45;;;;;;;1.47;0.80;;;8.80;99.90;;;;;;10451303;28;20679;-64
2023/12/05 13:07:51;;;;;;;2.70;1.00;;;8.90;99.90;;;;;;10450621;28;20456;-63
2023/12/05 13:12:58;;;;;;;1.33;1.10;;;8.90;99.90;;;;;;10452022;28;20215;-64
2023/12/05 13:18:04;;;;;;;2.07;0.80;;;8.90;99.90;;;;;;10452048;28;20243;-65
2023/12/05 13:23:08;;;;;;;2.83;1.33;;;8.80;99.90;;;;;;10456095;28;20695;-64
2023/12/05 13:28:14;;;;;;;1.80;1.50;;;8.80;99.90;;;;;;10448891;28;20204;-66
2023/12/05 13:33:17;;;;;;;5.90;2.57;;;8.80;99.90;;;;;;10452378;28;20211;-66
2023/12/05 13:38:21;;;;;;;1.20;1.10;;;8.80;99.90;;;;;;10441097;28;20668;-66
2023/12/05 13:43:26;;;;;;;1.50;1.40;;;8.80;99.90;;;;;;10450081;28;20231;-66
2023/12/05 13:48:32;;;;;;;2.37;1.67;;;8.70;99.90;;;;;;10444653;28;20265;-67
2023/12/05 13:53:38;;;;;;;2.60;1.70;;;8.70;99.90;;;;;;10448275;28;20271;-66
2023/12/05 13:58:46;;;;;;;3.57;1.60;;;8.70;99.90;;;;;;10449142;28;20200;-66
2023/12/05 14:03:49;;;;;;;1.60;1.40;;;8.70;99.90;;;;;;10444389;28;20231;-65
2023/12/05 14:08:53;;;;;;;1.93;1.63;;;8.70;99.90;;;;;;10452525;28;20229;-66
2023/12/05 14:14:01;;;;;;;4.20;1.97;;;8.60;99.90;;;;;;10452897;28;20212;-66
2023/12/05 14:19:05;;;;;;;3.13;2.70;;;8.60;99.90;;;;;;10453582;28;20204;-66
2023/12/05 14:24:09;;;;;;;7.60;3.90;;;8.60;99.90;;;;;;10452981;28;20959;-66
2023/12/05 14:29:14;;;;;;;2.50;2.23;;;8.60;99.90;;;;;;10450843;28;20269;-63
2023/12/05 14:34:18;;;;;;;2.70;2.23;;;8.60;99.90;;;;;;10447450;28;20219;-64
2023/12/05 14:39:23;;;;;;;4.03;2.90;;;8.50;99.90;;;;;;10447793;28;20203;-63
2023/12/05 14:44:28;;;;;;;3.83;3.43;;;8.50;99.90;;;;;;10455281;28;20246;-63
2023/12/05 14:49:32;;;;;;;7.37;6.67;;;8.40;99.90;;;;;;10443335;28;20203;-63
2023/12/05 14:54:37;;;;;;;8.00;7.30;;;8.40;99.90;;;;;;10454868;28;20682;-63
2023/12/05 14:59:42;;;;;;;7.23;6.60;;;8.30;99.90;;;;;;10448434;28;20260;-62
2023/12/05 15:04:45;;;;;;;5.03;4.53;;;8.10;99.90;;;;;;10453639;28;20231;-65
2023/12/05 15:09:49;;;;;;;4.87;4.47;;;8.00;99.90;;;;;;10448751;28;20625;-63
2023/12/05 15:14:54;;;;;;;6.20;5.60;;;7.90;99.90;;;;;;10446162;28;20273;-63
2023/12/05 15:19:59;;;;;;;4.83;4.43;;;7.80;99.90;;;;;;10441728;28;20280;-65
2023/12/05 15:25:22;;;;;;;6.27;5.70;;;7.70;99.90;;;;;;10434368;28;20213;-64
2023/12/05 15:30:27;;;;;;;6.53;5.93;;;7.60;99.90;;;;;;10454708;28;20230;-65
2023/12/05 15:35:31;;;;;;;6.83;6.13;;;7.50;99.90;;;;;;10447109;28;20236;-65
2023/12/05 15:40:34;;;;;;;6.93;6.30;;;7.40;99.90;;;;;;10455443;28;20222;-66
2023/12/05 15:45:40;;;;;;;8.37;7.47;;;7.30;99.90;;;;;;10450245;28;20257;-65
2023/12/05 15:50:43;;;;;;;9.80;8.80;;;7.30;99.90;;;;;;10449127;28;20223;-63
2023/12/05 15:55:47;;;;;;;11.70;9.33;;;7.20;99.90;;;;;;10425641;28;20203;-64
2023/12/05 16:00:52;;;;;;;8.30;7.40;;;7.10;99.90;;;;;;10406617;28;20250;-65
2023/12/05 16:06:02;;;;;;;9.30;8.30;;;7.00;99.90;;;;;;10446362;28;20628;-65
2023/12/05 16:11:06;;;;;;;12.27;10.20;;;6.90;99.90;;;;;;10414925;28;20215;-65
2023/12/05 16:16:11;;;;;;;14.27;10.83;;;6.80;99.90;;;;;;10449856;28;20229;-62
2023/12/05 16:21:19;;;;;;;12.90;11.50;;;6.70;99.90;;;;;;10452223;28;20231;-64
2023/12/05 16:26:22;;;;;;;17.53;13.77;;;6.70;99.90;;;;;;10445039;28;20607;-67
2023/12/05 16:31:27;;;;;;;22.00;15.03;;;6.60;99.90;;;;;;10398852;28;20218;-65
2023/12/05 16:36:32;;;;;;;17.97;15.33;;;6.50;99.90;;;;;;10450046;28;20800;-66
2023/12/05 16:41:40;;;;;;;19.50;15.47;;;6.40;99.90;;;;;;10440542;28;20595;-66
2023/12/05 16:46:45;;;;;;;23.30;17.97;;;6.40;99.90;;;;;;10418488;28;20263;-65
2023/12/05 16:51:49;;;;;;;18.67;15.33;;;6.40;99.90;;;;;;10451050;28;20271;-67
2023/12/05 16:56:53;;;;;;;14.53;11.40;;;6.30;99.90;;;;;;10448614;28;20203;-65
2023/12/05 17:01:58;;;;;;;14.40;11.20;;;6.10;99.90;;;;;;10442907;28;20277;-66
2023/12/05 17:07:01;;;;;;;12.10;10.30;;;6.00;99.90;;;;;;10450988;28;20218;-65
2023/12/05 17:12:06;;;;;;;11.93;9.83;;;5.80;99.90;;;;;;10454882;28;20217;-64
2023/12/05 17:17:13;;;;;;;11.57;9.87;;;5.80;99.90;;;;;;10461387;28;20255;-65
2023/12/05 17:22:17;;;;;;;13.67;10.27;;;5.80;99.90;;;;;;10454867;28;20224;-64
2023/12/05 17:27:21;;;;;;;12.50;9.33;;;5.70;99.90;;;;;;10446008;28;20202;-64
2023/12/05 17:32:26;;;;;;;11.80;9.10;;;5.70;99.90;;;;;;10445114;28;20307;-64
2023/12/05 17:37:31;;;;;;;11.60;8.60;;;5.70;99.90;;;;;;10436783;28;20199;-64
2023/12/05 17:42:35;;;;;;;15.63;10.93;;;5.60;99.90;;;;;;10450929;28;20245;-64
2023/12/05 17:47:40;;;;;;;13.63;11.13;;;5.50;99.90;;;;;;10457121;28;20208;-63
2023/12/05 17:52:44;;;;;;;17.10;11.90;;;5.50;99.90;;;;;;10448375;28;20223;-64
2023/12/05 17:57:47;;;;;;;15.10;12.47;;;5.50;99.90;;;;;;10455025;28;20266;-64
2023/12/05 18:02:53;;;;;;;13.47;11.33;;;5.50;99.90;;;;;;10447572;28;20279;-63
2023/12/05 18:07:56;;;;;;;14.23;10.60;;;5.50;99.90;;;;;;10451131;28;20229;-62
2023/12/05 18:13:05;;;;;;;16.50;12.87;;;5.50;99.90;;;;;;10448248;28;20214;-63
2023/12/05 18:18:11;;;;;;;19.30;14.37;;;5.40;99.90;;;;;;10444616;28;20877;-63
2023/12/05 18:23:15;;;;;;;21.77;15.57;;;5.30;99.90;;;;;;10438997;28;20879;-63
2023/12/05 18:28:19;;;;;;;24.07;16.87;;;5.30;99.90;;;;;;10446548;28;20197;-63
2023/12/05 18:33:24;;;;;;;25.97;18.27;;;5.30;99.90;;;;;;10446141;28;20222;-63
2023/12/05 18:38:29;;;;;;;33.13;20.33;;;5.20;99.90;;;;;;10448558;28;20200;-63
2023/12/05 18:43:34;;;;;;;28.23;19.97;;;5.20;99.90;;;;;;10445090;28;20224;-63
2023/12/05 18:48:41;;;;;;;32.67;21.90;;;5.20;99.90;;;;;;10446007;28;20227;-63
2023/12/05 18:53:45;;;;;;;37.03;24.73;;;5.10;99.90;;;;;;10444403;28;20638;-64
2023/12/05 18:58:48;;;;;;;36.23;23.60;;;5.20;99.90;;;;;;10446564;28;20622;-64
2023/12/05 19:03:53;;;;;;;27.00;18.73;;;5.10;99.90;;;;;;10435030;28;20259;-64
2023/12/05 19:08:57;;;;;;;26.93;18.87;;;5.10;99.90;;;;;;10444019;28;20274;-63
2023/12/05 19:14:02;;;;;;;21.87;15.73;;;5.00;99.90;;;;;;10445355;28;20216;-64
2023/12/05 19:19:08;;;;;;;25.43;18.43;;;5.00;99.90;;;;;;10448561;28;20593;-63
2023/12/05 19:24:12;;;;;;;26.43;18.50;;;4.90;99.90;;;;;;10443815;28;20681;-64
2023/12/05 19:29:17;;;;;;;26.50;17.93;;;4.90;99.90;;;;;;10447431;28;20197;-64
2023/12/05 19:34:23;;;;;;;25.60;18.67;;;4.90;99.90;;;;;;10446929;28;20254;-63
2023/12/05 19:39:43;;;;;;;25.17;17.10;;;4.90;99.90;;;;;;10446306;28;20199;-62
2023/12/05 19:44:46;;;;;;;16.80;13.37;;;4.90;99.90;;;;;;10448662;28;20219;-62
2023/12/05 19:49:51;;;;;;;20.20;13.50;;;4.80;99.90;;;;;;10444546;28;20205;-63
2023/12/05 19:54:55;;;;;;;15.47;11.77;;;4.80;99.90;;;;;;10446258;28;20247;-64
2023/12/05 20:00:00;;;;;;;15.67;11.40;;;4.80;99.90;;;;;;10446605;28;20197;-63
2023/12/05 20:05:05;;;;;;;14.80;11.37;;;4.70;99.90;;;;;;10451822;28;20251;-63
2023/12/05 20:10:09;;;;;;;13.80;10.63;;;4.70;99.90;;;;;;10446832;28;20201;-64
2023/12/05 20:15:14;;;;;;;13.80;10.40;;;4.70;99.90;;;;;;10460491;28;20634;-63
2023/12/05 20:20:19;;;;;;;16.17;11.53;;;4.70;99.90;;;;;;10454673;28;20196;-63
2023/12/05 20:25:24;;;;;;;16.00;12.03;;;4.70;99.90;;;;;;10454727;28;20243;-65
2023/12/05 20:30:27;;;;;;;18.17;13.67;;;4.70;99.90;;;;;;10446164;28;20226;-64
2023/12/05 20:35:32;;;;;;;18.13;13.57;;;4.80;99.90;;;;;;10443604;28;20194;-64
2023/12/05 20:40:37;;;;;;;20.93;13.27;;;4.90;99.90;;;;;;10452820;28;20217;-64
2023/12/05 20:45:42;;;;;;;20.10;14.83;;;5.00;99.90;;;;;;10450541;28;20243;-63
2023/12/05 20:50:47;;;;;;;16.00;12.47;;;4.90;99.90;;;;;;10450986;28;20241;-64
2023/12/05 20:55:55;;;;;;;17.47;13.57;;;4.80;99.90;;;;;;10453532;28;20201;-64
2023/12/05 21:00:58;;;;;;;16.77;12.70;;;4.80;99.90;;;;;;10456478;28;20291;-64
2023/12/05 21:06:06;;;;;;;16.70;11.83;;;4.80;99.90;;;;;;10443262;28;20272;-64
2023/12/05 21:11:10;;;;;;;15.50;11.97;;;4.70;99.90;;;;;;10448916;28;20696;-64
2023/12/05 21:16:13;;;;;;;17.10;13.53;;;4.70;99.90;;;;;;10441161;28;20646;-64
2023/12/05 21:21:21;;;;;;;21.70;13.93;;;4.60;99.90;;;;;;10445890;28;20280;-64
2023/12/05 21:26:24;;;;;;;20.23;14.53;;;4.60;99.90;;;;;;10445833;28;20537;-65
2023/12/05 21:31:28;;;;;;;24.07;15.90;;;4.60;99.90;;;;;;10445486;28;20222;-64
2023/12/05 21:36:35;;;;;;;21.23;15.23;;;4.60;99.90;;;;;;10449444;28;20194;-64
2023/12/05 21:41:39;;;;;;;23.23;15.97;;;4.70;99.90;;;;;;10441369;28;20243;-65
2023/12/05 21:46:42;;;;;;;25.83;17.03;;;4.70;99.90;;;;;;10417004;28;20223;-65
2023/12/05 21:51:47;;;;;;;28.20;17.87;;;4.80;99.90;;;;;;10447810;28;20271;-66
2023/12/05 21:56:51;;;;;;;30.30;19.43;;;4.80;99.90;;;;;;10450800;28;20220;-64
2023/12/05 22:01:55;;;;;;;28.07;19.07;;;4.90;99.90;;;;;;10442729;28;20223;-64
2023/12/05 22:07:00;;;;;;;26.87;18.43;;;4.80;99.90;;;;;;10454172;28;20213;-65
2023/12/05 22:12:04;;;;;;;27.83;18.97;;;4.90;99.90;;;;;;10451125;28;20267;-66
2023/12/05 22:17:08;;;;;;;27.83;19.63;;;4.90;99.90;;;;;;10452405;28;20197;-67
2023/12/05 22:22:13;;;;;;;30.80;20.47;;;4.90;99.90;;;;;;10444503;28;20270;-65
2023/12/05 22:27:17;;;;;;;33.03;21.33;;;4.80;99.90;;;;;;10448143;28;20222;-66
2023/12/05 22:32:21;;;;;;;33.83;20.43;;;4.70;99.90;;;;;;10449492;28;20228;-66
2023/12/05 22:37:26;;;;;;;27.40;18.00;;;4.70;99.90;;;;;;10455613;28;20707;-64
2023/12/05 22:42:30;;;;;;;31.97;20.77;;;4.70;99.90;;;;;;10451007;28;20638;-67
2023/12/05 22:47:34;;;;;;;32.43;20.30;;;4.70;99.90;;;;;;10442007;28;20686;-66
2023/12/05 22:52:39;;;;;;;33.93;20.17;;;4.70;99.90;;;;;;10455556;28;20242;-66
2023/12/05 22:57:43;;;;;;;28.90;19.20;;;4.60;99.90;;;;;;10449325;28;20206;-66
2023/12/05 23:02:46;;;;;;;35.17;21.07;;;4.60;99.90;;;;;;10450280;28;20225;-67
2023/12/05 23:07:53;;;;;;;33.33;21.20;;;4.60;99.90;;;;;;10446209;28;20229;-65
2023/12/05 23:12:56;;;;;;;32.53;21.13;;;4.70;99.90;;;;;;10447689;28;20224;-66
2023/12/05 23:18:00;;;;;;;33.80;20.40;;;4.70;99.90;;;;;;10445669;28;20221;-68
2023/12/05 23:23:05;;;;;;;27.07;18.73;;;4.80;99.90;;;;;;10447489;28;20289;-65
2023/12/05 23:28:09;;;;;;;28.50;18.80;;;4.80;99.90;;;;;;10436521;28;20252;-66
2023/12/05 23:33:21;;;;;;;27.07;18.10;;;4.70;99.90;;;;;;10441228;28;20250;-66
2023/12/05 23:38:26;;;;;;;29.43;19.27;;;4.70;99.90;;;;;;10437232;28;20200;-68
2023/12/05 23:43:30;;;;;;;35.50;20.70;;;4.70;99.90;;;;;;10439625;28;20267;-66
2023/12/05 23:48:33;;;;;;;34.90;21.03;;;4.70;99.90;;;;;;10442197;28;20215;-67
2023/12/05 23:53:39;;;;;;;38.10;22.23;;;4.60;99.90;;;;;;10445512;28;20602;-67
2023/12/05 23:58:42;;;;;;;37.60;22.03;;;4.60;99.90;;;;;;10447933;28;20194;-65
